Daska Weather



Daska's Current Weather

Temprature 16o smoke

smoke

Rain: 0 %

Min Temprature16o
Max Temprature16o
Humidity59
Wind Speed4.1 m/h
Sun Rise07:00:07
Sun Set17:29:59
Current Time: 27-Jan-2020 18:24:45
Lat/Lon: 32.32, 74.35




Daska's Geo Location



Daska's Weather Forecast

Time Overall Temp Min Temp Max Temp Humidity Wind Speed Rain
27-Jan-2020 (Mon)
20:00:00 overcast clouds 12.230 12.230 13.320 62 2.87 m/h 0 %
23:00:00 light rain 10.470 10.470 11.290 87 4.66 m/h 113 %
28-Jan-2020 (Tue)
02:00:00 light rain 10.770 10.770 11.310 86 3.93 m/h 88 %
05:00:00 light rain 11.020 11.020 11.290 83 5.66 m/h 163 %
08:00:00 moderate rain 10.050 10.050 10.050 87 7.44 m/h 356 %
11:00:00 moderate rain 9.980 9.980 9.980 86 4.79 m/h 369 %
14:00:00 moderate rain 10.560 10.560 10.560 95 4.62 m/h 738 %
17:00:00 moderate rain 11.460 11.460 11.460 96 3.27 m/h 425 %
20:00:00 moderate rain 10.290 10.290 10.290 94 3.46 m/h 650 %
23:00:00 light rain 10.010 10.010 10.010 92 1.8 m/h 206 %
29-Jan-2020 (Wed)
02:00:00 light rain 9.580 9.580 9.580 96 3.05 m/h 300 %
05:00:00 light rain 9.250 9.250 9.250 96 1.6 m/h 13 %
08:00:00 light rain 10.920 10.920 10.920 93 2.25 m/h 88 %
11:00:00 light rain 13.740 13.740 13.740 81 2.85 m/h 225 %
14:00:00 moderate rain 15.720 15.720 15.720 75 3.28 m/h 456 %
17:00:00 moderate rain 13.520 13.520 13.520 86 2.19 m/h 338 %
20:00:00 light rain 11.030 11.030 11.030 92 1.85 m/h 88 %
23:00:00 overcast clouds 10.140 10.140 10.140 93 1.33 m/h 0 %
30-Jan-2020 (Thu)
02:00:00 scattered clouds 8.980 8.980 8.980 93 1.34 m/h 0 %
05:00:00 few clouds 8.220 8.220 8.220 91 1.24 m/h 0 %
08:00:00 clear sky 9.240 9.240 9.240 82 0.97 m/h 0 %
11:00:00 clear sky 14.710 14.710 14.710 61 1.31 m/h 0 %
14:00:00 clear sky 17.410 17.410 17.410 51 0.73 m/h 0 %
17:00:00 scattered clouds 14.490 14.490 14.490 62 0.61 m/h 0 %
20:00:00 scattered clouds 11.070 11.070 11.070 69 0.84 m/h 0 %
23:00:00 few clouds 9.730 9.730 9.730 76 1.2 m/h 0 %
31-Jan-2020 (Fri)
02:00:00 scattered clouds 9.150 9.150 9.150 79 1.04 m/h 0 %
05:00:00 scattered clouds 7.920 7.920 7.920 80 0.66 m/h 0 %
08:00:00 clear sky 9.290 9.290 9.290 73 0.91 m/h 0 %
11:00:00 few clouds 15.270 15.270 15.270 53 0.46 m/h 0 %
14:00:00 overcast clouds 17.210 17.210 17.210 50 1.84 m/h 0 %
17:00:00 overcast clouds 14.770 14.770 14.770 62 1.35 m/h 0 %
20:00:00 broken clouds 11.480 11.480 11.480 64 1.09 m/h 0 %
23:00:00 overcast clouds 10.350 10.350 10.350 67 1.49 m/h 0 %
01-Feb-2020 (Sat)
02:00:00 few clouds 8.690 8.690 8.690 74 0.5 m/h 0 %
05:00:00 clear sky 7.720 7.720 7.720 76 0.89 m/h 0 %
08:00:00 clear sky 9.440 9.440 9.440 70 0.68 m/h 0 %
11:00:00 clear sky 15.560 15.560 15.560 48 1.09 m/h 0 %
14:00:00 clear sky 18.000 18.000 18.000 42 1.79 m/h 0 %
17:00:00 clear sky 15.410 15.410 15.410 56 1.61 m/h 0 %

Famous Cities (61)